createdAt,value
2022-09-20T00:01:12.758Z,99.9
2022-09-20T00:03:15.783Z,99.9
2022-09-20T00:05:23.712Z,99.9
2022-09-20T00:07:26.785Z,99.9
2022-09-20T00:09:29.886Z,99.9
2022-09-20T00:11:32.987Z,99.9
2022-09-20T00:13:36.119Z,99.9
2022-09-20T00:15:39.243Z,99.9
2022-09-20T00:17:42.350Z,99.9
2022-09-20T00:19:48.682Z,99.9
2022-09-20T00:21:51.788Z,99.9
2022-09-20T00:23:54.903Z,99.9
2022-09-20T00:25:58.036Z,99.9
2022-09-20T00:28:01.141Z,99.9
2022-09-20T00:30:04.277Z,99.9
2022-09-20T00:32:07.490Z,99.9
2022-09-20T00:36:16.812Z,99.9
2022-09-20T00:41:26.219Z,99.9
2022-09-20T00:43:29.339Z,99.9
2022-09-20T00:45:32.495Z,99.9
2022-09-20T00:47:38.792Z,99.9
2022-09-20T00:49:41.929Z,99.9
2022-09-20T00:51:45.040Z,99.9
2022-09-20T00:53:48.165Z,99.9
2022-09-20T00:55:51.297Z,99.9
2022-09-20T00:59:57.526Z,99.9
2022-09-20T01:02:03.953Z,99.9
2022-09-20T01:06:10.164Z,99.9
2022-09-20T01:08:13.210Z,99.9
2022-09-20T01:10:16.344Z,99.9
2022-09-20T01:12:19.435Z,99.9
2022-09-20T01:14:22.564Z,99.9
2022-09-20T01:16:28.924Z,99.9
2022-09-20T01:18:32.020Z,99.9
2022-09-20T01:20:35.129Z,99.9
2022-09-20T01:22:38.274Z,99.9
2022-09-20T01:28:47.619Z,99.9
2022-09-20T01:30:53.936Z,99.9
2022-09-20T01:32:57.079Z,99.9
2022-09-20T01:35:00.193Z,99.9
2022-09-20T01:36:03.343Z,99.9
2022-09-20T01:38:06.463Z,99.9
2022-09-20T01:40:09.690Z,99.9
2022-09-20T01:42:12.703Z,99.9
2022-09-20T01:44:19.032Z,99.9
2022-09-20T01:46:22.188Z,99.9
2022-09-20T01:48:25.278Z,99.9
2022-09-20T01:50:29.332Z,99.9
2022-09-20T01:52:32.456Z,99.9
2022-09-20T01:56:38.685Z,99.9
2022-09-20T01:58:46.893Z,99.9
2022-09-20T02:00:48.255Z,99.9
2022-09-20T02:02:51.341Z,99.9
2022-09-20T02:04:54.384Z,99.9
2022-09-20T02:06:57.503Z,99.9
2022-09-20T02:09:00.619Z,99.9
2022-09-20T02:11:03.742Z,99.9
2022-09-20T02:13:10.064Z,99.9
2022-09-20T02:15:13.206Z,99.9
2022-09-20T02:19:19.428Z,99.9
2022-09-20T02:21:22.532Z,99.9
2022-09-20T02:23:25.649Z,99.9
2022-09-20T02:25:28.782Z,99.9
2022-09-20T02:27:35.119Z,99.9
2022-09-20T02:29:38.239Z,99.9
2022-09-20T02:31:41.424Z,99.9
2022-09-20T02:34:03.392Z,99.9
2022-09-20T02:36:06.486Z,99.9
2022-09-20T02:38:09.604Z,99.9
2022-09-20T02:40:16.029Z,99.9
2022-09-20T02:42:19.079Z,99.9
2022-09-20T02:44:22.228Z,99.9
2022-09-20T02:46:25.321Z,99.9
2022-09-20T02:48:28.443Z,99.9
2022-09-20T02:50:31.566Z,99.9
2022-09-20T02:52:34.678Z,99.9
2022-09-20T02:54:41.004Z,99.9
2022-09-20T02:56:44.122Z,99.9
2022-09-20T02:58:47.228Z,99.9
2022-09-20T03:06:59.762Z,99.9
2022-09-20T03:09:06.068Z,99.9
2022-09-20T03:11:09.191Z,99.9
2022-09-20T03:13:12.307Z,99.9
2022-09-20T03:17:18.563Z,99.9
2022-09-20T03:21:24.803Z,99.9
2022-09-20T03:23:31.120Z,99.9
2022-09-20T03:25:34.251Z,99.9
2022-09-20T03:27:37.376Z,99.9
2022-09-20T03:28:40.513Z,99.9
2022-09-20T03:30:43.639Z,99.9
2022-09-20T03:32:46.785Z,99.9
2022-09-20T03:36:56.221Z,99.9
2022-09-20T03:38:59.342Z,99.9
2022-09-20T03:41:02.472Z,99.9
2022-09-20T03:43:05.579Z,99.9
2022-09-20T03:45:08.711Z,99.9
2022-09-20T03:47:11.846Z,99.9
2022-09-20T03:49:14.971Z,99.9
2022-09-20T03:51:21.303Z,99.9
2022-09-20T03:53:24.399Z,99.9
2022-09-20T03:55:27.547Z,99.9
2022-09-20T03:57:30.649Z,99.9
2022-09-20T03:59:33.786Z,99.9
2022-09-20T04:01:36.925Z,99.9
2022-09-20T04:03:40.008Z,99.9
2022-09-20T04:07:49.426Z,99.9
2022-09-20T04:13:58.797Z,99.9
2022-09-20T04:16:01.914Z,99.9
2022-09-20T04:18:05.027Z,99.9
2022-09-20T04:20:11.396Z,99.9
2022-09-20T04:25:20.768Z,99.9
2022-09-20T04:27:23.890Z,99.9
2022-09-20T04:29:27.011Z,99.9
2022-09-20T04:33:36.429Z,99.9
2022-09-20T04:35:39.562Z,99.9
2022-09-20T04:37:42.645Z,99.9
2022-09-20T04:39:45.778Z,99.9
2022-09-20T04:43:51.988Z,99.9
2022-09-20T04:45:55.160Z,99.9
2022-09-20T04:48:01.438Z,99.9
2022-09-20T04:50:04.550Z,99.9
2022-09-20T04:54:10.782Z,99.9
2022-09-20T04:56:13.899Z,99.9
2022-09-20T05:02:26.538Z,99.9
2022-09-20T05:06:32.696Z,99.9
2022-09-20T05:12:42.060Z,99.9
2022-09-20T05:16:51.516Z,99.9
2022-09-20T05:18:54.603Z,99.9
2022-09-20T05:24:03.979Z,99.9
2022-09-20T05:26:07.109Z,99.9
2022-09-20T05:28:10.234Z,99.9
2022-09-20T05:30:16.558Z,99.9
2022-09-20T05:32:19.658Z,99.9
2022-09-20T05:34:22.767Z,99.9
2022-09-20T05:36:25.882Z,99.9
2022-09-20T05:40:32.201Z,99.9
2022-09-20T05:42:35.219Z,99.9
2022-09-20T05:44:41.547Z,99.9
2022-09-20T05:46:44.677Z,99.9
2022-09-20T05:48:47.790Z,99.9
2022-09-20T05:50:50.897Z,99.9
2022-09-20T05:52:54.002Z,99.9
2022-09-20T05:54:57.110Z,99.9
2022-09-20T05:57:00.237Z,99.9
2022-09-20T05:59:09.962Z,99.9
2022-09-20T06:01:11.262Z,99.9
2022-09-20T06:03:14.293Z,99.9
2022-09-20T06:05:17.427Z,99.9
2022-09-20T06:07:20.541Z,99.9
2022-09-20T06:09:23.660Z,99.9
2022-09-20T06:11:26.775Z,99.9
2022-09-20T06:13:33.088Z,99.9
2022-09-20T06:15:36.220Z,99.9
2022-09-20T06:17:39.338Z,99.9
2022-09-20T06:22:04.325Z,99.9
2022-09-20T06:24:07.439Z,99.9
2022-09-20T06:26:13.754Z,99.9
2022-09-20T06:28:16.884Z,99.9
2022-09-20T06:30:20.046Z,99.9
2022-09-20T06:34:26.235Z,99.9
2022-09-20T06:36:29.366Z,99.9
2022-09-20T06:38:32.505Z,99.9
2022-09-20T06:40:38.872Z,99.9
2022-09-20T06:42:41.935Z,99.9
2022-09-20T06:44:45.055Z,99.9
2022-09-20T06:46:48.157Z,99.9
2022-09-20T06:48:51.276Z,99.9
2022-09-20T06:50:54.399Z,99.9
2022-09-20T06:52:57.539Z,99.9
2022-09-20T06:55:03.856Z,99.9
2022-09-20T06:57:06.973Z,99.9
2022-09-20T06:59:10.099Z,99.9
2022-09-20T07:01:13.341Z,99.9
2022-09-20T07:03:16.334Z,99.9
2022-09-20T07:07:22.577Z,99.9
2022-09-20T07:09:28.929Z,99.9
2022-09-20T07:11:32.031Z,99.9
2022-09-20T07:13:35.179Z,99.9
2022-09-20T07:14:38.327Z,99.9
2022-09-20T07:16:41.507Z,99.9
2022-09-20T07:18:44.574Z,99.9
2022-09-20T07:20:47.693Z,99.9
2022-09-20T07:22:54.054Z,99.9
2022-09-20T07:24:57.184Z,99.9
2022-09-20T07:29:03.431Z,99.9
2022-09-20T07:31:06.559Z,99.9
2022-09-20T07:33:09.689Z,99.9
2022-09-20T07:35:12.812Z,99.9
2022-09-20T07:37:19.144Z,99.9
2022-09-20T07:39:22.263Z,99.9
2022-09-20T07:41:25.398Z,99.9
2022-09-20T07:43:28.525Z,99.9
2022-09-20T07:45:31.685Z,99.9
2022-09-20T07:47:34.764Z,99.9
2022-09-20T07:49:37.883Z,99.9
2022-09-20T07:51:44.240Z,99.9
2022-09-20T07:53:47.367Z,99.9
2022-09-20T07:55:50.514Z,99.9
2022-09-20T07:57:53.615Z,99.9
2022-09-20T07:59:56.734Z,99.9
2022-09-20T08:01:59.916Z,99.9
2022-09-20T08:04:03.015Z,99.9
2022-09-20T08:06:09.375Z,99.9
2022-09-20T08:08:12.516Z,99.9
2022-09-20T08:10:15.640Z,99.9
2022-09-20T08:11:18.815Z,99.9
2022-09-20T08:15:25.079Z,99.9
2022-09-20T08:17:28.218Z,99.9
2022-09-20T08:19:34.576Z,99.9
2022-09-20T08:21:37.690Z,99.9
2022-09-20T08:23:40.823Z,99.9
2022-09-20T08:25:44.043Z,99.9
2022-09-20T08:27:46.869Z,99.9
2022-09-20T08:29:49.927Z,99.9
2022-09-20T08:31:52.999Z,99.9
2022-09-20T08:36:02.239Z,99.9
2022-09-20T08:44:14.564Z,99.9
2022-09-20T08:46:22.898Z,99.9
2022-09-20T08:48:23.846Z,99.9
2022-09-20T08:50:26.869Z,99.9
2022-09-20T08:52:29.952Z,99.9
2022-09-20T08:54:32.928Z,99.9
2022-09-20T08:56:35.975Z,99.9
2022-09-20T08:58:39.023Z,99.9
2022-09-20T09:00:42.149Z,99.9
2022-09-20T09:02:48.396Z,99.9
2022-09-20T09:04:51.529Z,99.9
2022-09-20T09:06:54.673Z,99.9
2022-09-20T09:07:57.746Z,99.9
2022-09-20T09:10:00.773Z,99.9
2022-09-20T09:12:03.797Z,99.9
2022-09-20T09:14:06.838Z,99.9
2022-09-20T09:16:13.135Z,99.9
2022-09-20T09:18:16.127Z,99.9
2022-09-20T09:20:19.137Z,99.9
2022-09-20T09:22:22.171Z,99.9
2022-09-20T09:24:25.181Z,99.9
2022-09-20T09:26:28.234Z,99.9
2022-09-20T09:28:31.233Z,99.9
2022-09-20T09:30:37.389Z,99.9
2022-09-20T09:34:43.435Z,99.9
2022-09-20T09:36:46.454Z,99.9
2022-09-20T09:38:49.474Z,99.9
2022-09-20T09:40:52.485Z,99.9
2022-09-20T09:42:55.498Z,99.9
2022-09-20T09:45:01.671Z,99.9
2022-09-20T09:47:04.680Z,99.9
2022-09-20T09:49:10.109Z,99.9
2022-09-20T09:51:10.705Z,99.9
2022-09-20T09:53:13.718Z,99.9
2022-09-20T09:55:16.722Z,99.9
2022-09-20T09:57:19.748Z,99.9
2022-09-20T09:59:25.882Z,99.9
2022-09-20T10:01:33.062Z,99.9
2022-09-20T10:03:31.916Z,99.9
2022-09-20T10:05:55.651Z,99.9
2022-09-20T10:07:58.671Z,99.9
2022-09-20T10:12:07.835Z,99.9
2022-09-20T10:14:10.849Z,99.9
2022-09-20T10:16:13.940Z,99.9
2022-09-20T10:18:16.871Z,99.9
2022-09-20T10:20:19.895Z,99.9
2022-09-20T10:22:22.903Z,99.9
2022-09-20T10:24:25.904Z,99.9
2022-09-20T10:26:32.033Z,99.9
2022-09-20T10:28:35.045Z,99.9
2022-09-20T10:30:38.070Z,99.9
2022-09-20T10:32:41.025Z,99.9
2022-09-20T10:34:44.007Z,99.9
2022-09-20T10:40:56.146Z,99.9
2022-09-20T10:42:59.151Z,99.9
2022-09-20T10:45:02.141Z,99.9
2022-09-20T10:47:05.145Z,99.9
2022-09-20T10:49:08.137Z,99.9
2022-09-20T10:51:11.136Z,99.9
2022-09-20T10:53:14.120Z,99.9
2022-09-20T10:55:20.225Z,99.9
2022-09-20T10:57:23.242Z,99.9
2022-09-20T10:59:26.247Z,99.9
2022-09-20T11:00:29.309Z,99.9
2022-09-20T11:02:32.341Z,99.9
2022-09-20T11:04:35.294Z,99.9
2022-09-20T11:06:38.291Z,99.9
2022-09-20T11:08:44.398Z,99.9
2022-09-20T11:10:47.381Z,99.9
2022-09-20T11:14:53.351Z,99.9
2022-09-20T11:16:56.394Z,99.9
2022-09-20T11:18:59.311Z,99.9
2022-09-20T11:21:02.312Z,99.9
2022-09-20T11:23:08.414Z,99.9
2022-09-20T11:27:14.353Z,99.9
2022-09-20T11:31:20.439Z,99.9
2022-09-20T11:33:23.303Z,99.9
2022-09-20T11:35:26.302Z,99.9
2022-09-20T11:37:32.402Z,99.9
2022-09-20T11:39:35.394Z,99.9
2022-09-20T11:45:44.546Z,99.9
2022-09-20T11:47:54.941Z,99.9
2022-09-20T11:51:56.384Z,99.9
2022-09-20T11:53:59.377Z,99.9
2022-09-20T11:56:03.948Z,99.9
2022-09-20T11:57:06.971Z,99.9
2022-09-20T11:59:09.933Z,99.9
2022-09-20T12:01:12.947Z,99.9
2022-09-20T12:03:16.018Z,99.9
2022-09-20T12:05:22.025Z,99.9
2022-09-20T12:07:25.042Z,99.9
2022-09-20T12:11:31.049Z,99.9
2022-09-20T12:13:34.046Z,99.9
2022-09-20T12:15:37.066Z,99.9
2022-09-20T12:25:55.290Z,99.9
2022-09-20T12:32:04.374Z,99.9
2022-09-20T12:36:13.448Z,99.9
2022-09-20T12:42:22.469Z,99.9
2022-09-20T12:44:25.481Z,99.9
2022-09-20T12:46:28.502Z,99.9
2022-09-20T12:48:34.636Z,99.9
2022-09-20T12:50:37.639Z,99.9
2022-09-20T12:52:40.674Z,99.9
2022-09-20T12:53:43.747Z,99.9
2022-09-20T12:55:46.726Z,99.9
2022-09-20T12:57:49.801Z,99.9
2022-09-20T12:59:52.767Z,99.9
2022-09-20T13:01:58.931Z,99.9
2022-09-20T13:04:01.918Z,99.9
2022-09-20T13:06:04.927Z,99.9
2022-09-20T13:08:07.939Z,99.9
2022-09-20T13:10:10.946Z,99.9
2022-09-20T13:12:13.968Z,99.9
2022-09-20T13:14:16.970Z,99.9
2022-09-20T13:16:23.161Z,99.9
2022-09-20T13:18:26.152Z,99.9
2022-09-20T13:20:29.161Z,99.9
2022-09-20T13:24:35.207Z,83.3
2022-09-20T13:26:38.229Z,59
2022-09-20T13:28:41.188Z,57.9
2022-09-20T13:30:47.296Z,50
2022-09-20T13:32:50.245Z,49
2022-09-20T13:34:53.214Z,42.3
2022-09-20T13:36:56.552Z,42.3
2022-09-20T13:38:59.901Z,41.3
2022-09-20T13:41:01.993Z,40.9
2022-09-20T13:43:22.587Z,40.8
2022-09-20T13:45:11.387Z,40.5
2022-09-20T13:49:17.103Z,43.9
2022-09-20T13:51:46.245Z,53.3
2022-09-20T13:53:49.105Z,53.2
2022-09-20T13:55:51.955Z,53.5
2022-09-20T13:57:57.945Z,54.3
2022-09-20T14:00:00.775Z,49.8
2022-09-20T14:02:04.153Z,48.4
2022-09-20T14:10:15.394Z,45.4
2022-09-20T14:12:21.376Z,45.3
2022-09-20T14:16:27.057Z,45.8
2022-09-20T14:18:29.893Z,43.9
2022-09-20T14:20:32.732Z,36.8
2022-09-20T14:24:38.419Z,37.9
2022-09-20T14:26:44.380Z,49.8
2022-09-20T14:28:47.227Z,49.1
2022-09-20T14:30:50.083Z,44.9
2022-09-20T14:32:52.894Z,41.3
2022-09-20T14:34:55.737Z,40.8
2022-09-20T14:36:58.557Z,41
2022-09-20T14:39:01.386Z,40.7
2022-09-20T14:41:07.369Z,39.9
2022-09-20T14:43:10.187Z,39
2022-09-20T14:45:13.020Z,39.2
2022-09-20T14:46:15.981Z,41
2022-09-20T14:48:18.823Z,43
2022-09-20T14:50:21.624Z,53.5
2022-09-20T14:54:30.434Z,88.4
2022-09-20T14:56:33.285Z,71.5
2022-09-20T14:58:36.133Z,57.9
2022-09-20T15:00:39.059Z,57.7
2022-09-20T15:02:41.908Z,51.4
2022-09-20T15:04:44.750Z,71.7
2022-09-20T15:06:47.608Z,76.9
2022-09-20T15:08:53.624Z,90.6
2022-09-20T15:10:56.540Z,92
2022-09-20T15:12:59.429Z,66.2
2022-09-20T15:15:02.336Z,54.1
2022-09-20T15:17:05.216Z,46.2
2022-09-20T15:19:09.009Z,45.9
2022-09-20T15:21:11.868Z,45
2022-09-20T15:23:17.885Z,44.3
2022-09-20T15:25:20.785Z,43.8
2022-09-20T15:29:26.568Z,50
2022-09-20T15:31:29.515Z,52.4
2022-09-20T15:35:35.234Z,59.7
2022-09-20T15:41:47.024Z,50.2
2022-09-20T15:42:50.044Z,49
2022-09-20T15:44:52.930Z,46.7
2022-09-20T15:46:55.788Z,45.4
2022-09-20T15:48:58.672Z,43.8
2022-09-20T15:51:04.681Z,41.6
2022-09-20T15:53:07.546Z,48.2
2022-09-20T15:55:10.453Z,49
2022-09-20T15:57:13.328Z,48.6
2022-09-20T15:59:16.184Z,40.2
2022-09-20T16:01:19.121Z,48.8
2022-09-20T16:03:21.969Z,49.5
2022-09-20T16:05:28.001Z,43.9
2022-09-20T16:11:36.681Z,41.1
2022-09-20T16:13:39.553Z,58
2022-09-20T16:15:42.445Z,81.1
2022-09-20T16:17:45.362Z,94.6
2022-09-20T16:26:00.188Z,99.8
2022-09-20T16:28:03.148Z,99.8
2022-09-20T16:32:09.056Z,99.9
2022-09-20T16:34:15.172Z,99.9
2022-09-20T16:36:18.126Z,99.9
2022-09-20T16:39:24.174Z,99.9
2022-09-20T16:41:27.191Z,99.9
2022-09-20T16:43:30.185Z,99.9
2022-09-20T16:47:39.356Z,99.9
2022-09-20T16:49:42.379Z,99.9
2022-09-20T16:53:48.417Z,99.9
2022-09-20T16:55:51.435Z,99.9
2022-09-20T16:57:54.456Z,99.9
2022-09-20T17:04:06.785Z,99.9
2022-09-20T17:06:09.731Z,99.9
2022-09-20T17:08:12.758Z,99.9
2022-09-20T17:10:15.797Z,99.9
2022-09-20T17:12:18.842Z,99.9
2022-09-20T17:14:21.911Z,99.9
2022-09-20T17:16:28.107Z,99.9
2022-09-20T17:18:31.087Z,99.9
2022-09-20T17:20:34.246Z,99.9
2022-09-20T17:22:37.378Z,99.9
2022-09-20T17:24:40.404Z,99.9
2022-09-20T17:26:43.585Z,99.9
2022-09-20T17:28:46.721Z,99.9
2022-09-20T17:30:53.085Z,99.9
2022-09-20T17:32:56.227Z,99.9
2022-09-20T17:34:59.371Z,99.9
2022-09-20T17:37:29.161Z,99.9
2022-09-20T17:39:32.302Z,99.9
2022-09-20T17:41:35.443Z,99.9
2022-09-20T17:43:41.829Z,99.9
2022-09-20T17:45:44.998Z,99.9
2022-09-20T17:47:48.126Z,99.9
2022-09-20T17:49:52.841Z,99.9
2022-09-20T17:51:55.959Z,99.9
2022-09-20T17:53:59.109Z,99.9
2022-09-20T17:56:02.272Z,99.9
2022-09-20T17:58:08.612Z,99.9
2022-09-20T18:00:11.760Z,99.9
2022-09-20T18:02:14.918Z,99.9
2022-09-20T18:04:18.060Z,99.9
2022-09-20T18:06:21.396Z,99.9
2022-09-20T18:08:24.356Z,99.9
2022-09-20T18:10:27.480Z,99.9
2022-09-20T18:12:33.816Z,99.9
2022-09-20T18:14:36.973Z,99.9
2022-09-20T18:16:40.147Z,99.9
2022-09-20T18:18:43.318Z,99.9
2022-09-20T18:20:46.436Z,99.9
2022-09-20T18:22:49.576Z,99.9
2022-09-20T18:24:52.736Z,99.9
2022-09-20T18:26:59.077Z,99.9
2022-09-20T18:29:02.235Z,99.9
2022-09-20T18:31:05.482Z,99.9
2022-09-20T18:32:08.557Z,99.9
2022-09-20T18:34:11.699Z,99.9
2022-09-20T18:36:14.872Z,99.9
2022-09-20T18:38:18.011Z,99.9
2022-09-20T18:40:24.406Z,99.9
2022-09-20T18:42:27.540Z,99.9
2022-09-20T18:44:30.676Z,99.9
2022-09-20T18:46:33.880Z,99.9
2022-09-20T18:48:36.977Z,99.9
2022-09-20T18:50:40.112Z,99.9
2022-09-20T18:52:43.257Z,99.9
2022-09-20T18:54:49.606Z,99.9
2022-09-20T18:56:52.763Z,99.9
2022-09-20T18:58:55.907Z,99.9
2022-09-20T19:00:59.132Z,99.9
2022-09-20T19:03:04.729Z,99.9
2022-09-20T19:05:05.336Z,99.9
2022-09-20T19:07:08.492Z,99.9
2022-09-20T19:09:14.842Z,99.9
2022-09-20T19:11:18.000Z,99.9
2022-09-20T19:13:21.143Z,99.9
2022-09-20T19:15:24.276Z,99.9
2022-09-20T19:17:27.432Z,99.9
2022-09-20T19:19:30.587Z,99.9
2022-09-20T19:21:33.740Z,99.9
2022-09-20T19:23:40.089Z,99.9
2022-09-20T19:25:43.226Z,99.9
2022-09-20T19:27:46.384Z,99.9
2022-09-20T19:28:49.575Z,99.9
2022-09-20T19:30:52.717Z,99.9
2022-09-20T19:32:55.867Z,99.9
2022-09-20T19:34:59.031Z,99.9
2022-09-20T19:37:05.388Z,99.9
2022-09-20T19:39:08.601Z,99.9
2022-09-20T19:41:11.659Z,99.9
2022-09-20T19:43:14.820Z,99.9
2022-09-20T19:51:30.631Z,99.9
2022-09-20T19:55:36.920Z,99.9
2022-09-20T19:57:40.051Z,99.9
2022-09-20T19:59:43.201Z,99.9
2022-09-20T20:01:46.405Z,99.9
2022-09-20T20:03:49.507Z,99.9
2022-09-20T20:07:58.994Z,99.9
2022-09-20T20:10:02.143Z,99.9
2022-09-20T20:12:05.292Z,99.9
2022-09-20T20:14:08.444Z,99.9
2022-09-20T20:16:11.737Z,99.9
2022-09-20T20:18:16.779Z,99.9
2022-09-20T20:20:21.068Z,99.9
2022-09-20T20:25:30.536Z,99.9
2022-09-20T20:27:33.682Z,99.9
2022-09-20T20:29:36.836Z,99.9
2022-09-20T20:33:46.318Z,99.9
2022-09-20T20:35:49.454Z,99.9
2022-09-20T20:37:52.593Z,99.9
2022-09-20T20:39:55.748Z,99.9
2022-09-20T20:44:02.050Z,99.9
2022-09-20T20:48:11.535Z,99.9
2022-09-20T20:50:14.695Z,99.9
2022-09-20T20:54:20.960Z,99.9
2022-09-20T20:58:27.248Z,99.9
2022-09-20T21:00:30.388Z,99.9
2022-09-20T21:02:36.807Z,99.9
2022-09-20T21:04:39.913Z,99.9
2022-09-20T21:06:43.062Z,99.9
2022-09-20T21:08:49.256Z,99.9
2022-09-20T21:10:49.354Z,99.9
2022-09-20T21:14:55.608Z,99.9
2022-09-20T21:21:08.270Z,99.9
2022-09-20T21:23:38.149Z,99.9
2022-09-20T21:25:41.288Z,99.9
2022-09-20T21:27:44.448Z,99.9
2022-09-20T21:29:50.799Z,99.9
2022-09-20T21:31:53.952Z,99.9
2022-09-20T21:33:57.182Z,99.9
2022-09-20T21:36:00.203Z,99.9
2022-09-20T21:38:03.353Z,99.9
2022-09-20T21:40:06.540Z,99.9
2022-09-20T21:42:09.621Z,99.9
2022-09-20T21:44:16.024Z,99.9
2022-09-20T21:46:19.280Z,99.9
2022-09-20T21:48:22.270Z,99.9
2022-09-20T21:56:34.824Z,99.9
2022-09-20T21:58:41.174Z,99.9
2022-09-20T22:00:44.322Z,99.9
2022-09-20T22:02:47.517Z,99.9
2022-09-20T22:04:50.590Z,99.9
2022-09-20T22:08:56.873Z,99.9
2022-09-20T22:11:00.011Z,99.9
2022-09-20T22:15:09.513Z,99.9
2022-09-20T22:17:12.611Z,99.9
2022-09-20T22:18:15.790Z,99.9
2022-09-20T22:20:18.921Z,99.9
2022-09-20T22:22:22.064Z,99.9
2022-09-20T22:24:25.233Z,99.9
2022-09-20T22:26:31.543Z,99.9
2022-09-20T22:30:37.908Z,99.9
2022-09-20T22:32:40.944Z,99.9
2022-09-20T22:34:44.093Z,99.9
2022-09-20T22:36:47.244Z,99.9
2022-09-20T22:38:50.354Z,99.9
2022-09-20T22:40:56.704Z,99.9
2022-09-20T22:42:59.833Z,99.9
2022-09-20T22:45:02.977Z,99.9
2022-09-20T22:47:06.123Z,99.9
2022-09-20T22:49:09.221Z,99.9
2022-09-20T22:51:12.357Z,99.9
2022-09-20T22:53:15.467Z,99.9
2022-09-20T22:55:21.838Z,99.9
2022-09-20T22:57:24.951Z,99.9
2022-09-20T22:59:28.091Z,99.9
2022-09-20T23:01:31.292Z,99.9
2022-09-20T23:03:34.412Z,99.9
2022-09-20T23:05:37.484Z,99.9
2022-09-20T23:07:40.624Z,99.9
2022-09-20T23:09:46.965Z,99.9
2022-09-20T23:11:50.090Z,99.9
2022-09-20T23:13:53.232Z,99.9
2022-09-20T23:14:56.411Z,99.9
2022-09-20T23:16:59.627Z,99.9
2022-09-20T23:19:02.678Z,99.9
2022-09-20T23:21:05.803Z,99.9
2022-09-20T23:23:12.159Z,99.9
2022-09-20T23:25:15.289Z,99.9
2022-09-20T23:27:18.417Z,99.9
2022-09-20T23:29:21.552Z,99.9
2022-09-20T23:31:24.675Z,99.9
2022-09-20T23:33:27.788Z,99.9
2022-09-20T23:35:30.934Z,99.9
2022-09-20T23:37:37.281Z,99.9
2022-09-20T23:39:40.420Z,99.9
2022-09-20T23:41:48.373Z,99.9
2022-09-20T23:43:46.580Z,99.9
2022-09-20T23:45:51.346Z,99.9
2022-09-20T23:47:54.389Z,99.9
2022-09-20T23:49:57.526Z,99.9
2022-09-20T23:52:03.870Z,99.9
2022-09-20T23:54:07.010Z,99.9
2022-09-20T23:56:10.261Z,99.9
2022-09-20T23:58:13.274Z,99.9
